Time;durP1;ratioP1;P1;durP2;ratioP2;P2;SDS_P1;SDS_P2;PMS_P1;PMS_P2;Temp;Humidity;BMP_temperature;BMP_pressure;BME280_temperature;BME280_humidity;BME280_pressure;Samples;Min_cycle;Max_cycle;Signal;HPM_P1;HPM_P2
2022/03/20 00:01:46;;;;;;;26.40;14.65;;;;;;;7.32;48.03;101549.25;4923683;29;20269;-78
2022/03/20 00:04:11;;;;;;;28.67;15.80;;;;;;;7.24;48.24;101533.16;4929438;29;20563;-81
2022/03/20 00:06:36;;;;;;;33.00;15.87;;;;;;;7.17;48.16;101543.09;4924092;29;20258;-81
2022/03/20 00:09:02;;;;;;;25.90;14.07;;;;;;;7.01;48.72;101534.25;4925514;29;20277;-80
2022/03/20 00:11:28;;;;;;;25.15;14.30;;;;;;;7.02;48.02;101530.47;4923530;29;20812;-81
2022/03/20 00:13:54;;;;;;;25.45;15.75;;;;;;;6.83;49.07;101534.72;4932029;29;20023;-78
2022/03/20 00:16:20;;;;;;;30.88;14.07;;;;;;;7.04;48.68;101528.41;4943180;29;20035;-81
2022/03/20 00:18:45;;;;;;;23.75;13.88;;;;;;;6.97;48.82;101525.66;4942908;29;20027;-80
2022/03/20 00:21:11;;;;;;;36.30;17.67;;;;;;;6.79;49.35;101522.59;4932932;29;20054;-81
2022/03/20 00:23:37;;;;;;;31.52;15.70;;;;;;;7.13;48.63;101515.53;4923764;28;20035;-78
2022/03/20 00:26:02;;;;;;;25.70;14.95;;;;;;;7.10;48.76;101510.50;4934064;29;20370;-79
2022/03/20 00:28:28;;;;;;;30.02;15.10;;;;;;;6.96;48.92;101517.69;4916012;29;20644;-80
2022/03/20 00:30:54;;;;;;;30.83;16.40;;;;;;;6.86;48.83;101505.34;4932281;29;20027;-81
2022/03/20 00:33:20;;;;;;;23.38;15.18;;;;;;;6.69;49.73;101498.53;4917317;29;20921;-80
2022/03/20 00:35:46;;;;;;;26.40;14.75;;;;;;;6.87;49.71;101501.59;4933423;29;20028;-80
2022/03/20 00:38:12;;;;;;;32.10;18.05;;;;;;;6.84;49.44;101496.56;4932978;29;20098;-79
2022/03/20 00:40:38;;;;;;;24.85;14.30;;;;;;;6.83;49.52;101489.47;4933462;29;20030;-79
2022/03/20 00:43:04;;;;;;;28.80;15.80;;;;;;;6.85;50.10;101487.41;4933498;29;20026;-79
2022/03/20 00:45:30;;;;;;;27.02;14.98;;;;;;;6.94;49.17;101489.94;4914405;29;20024;-79
2022/03/20 00:50:40;;;;;;;25.65;15.10;;;;;;;6.76;49.77;101486.72;4924796;29;20118;-79
2022/03/20 00:53:05;;;;;;;22.10;14.55;;;;;;;6.58;49.67;101480.91;4932924;29;20602;-80
2022/03/20 00:55:31;;;;;;;24.60;14.80;;;;;;;6.68;49.62;101483.28;4931855;29;20031;-81
2022/03/20 00:57:57;;;;;;;26.67;15.20;;;;;;;6.81;49.03;101479.84;4928666;29;20019;-79
2022/03/20 01:00:22;;;;;;;24.85;15.48;;;;;;;6.74;49.46;101479.78;4931216;29;20038;-81
2022/03/20 01:02:48;;;;;;;26.17;15.15;;;;;;;6.52;49.04;101471.72;4932648;29;20043;-79
2022/03/20 01:05:14;;;;;;;29.52;15.88;;;;;;;6.48;49.66;101470.41;4932163;29;20106;-79
2022/03/20 01:07:39;;;;;;;28.83;14.95;;;;;;;6.51;49.72;101464.59;4932813;29;20079;-79
2022/03/20 01:10:07;;;;;;;28.17;15.70;;;;;;;6.61;49.63;101459.69;4930570;29;20080;-79
2022/03/20 01:12:33;;;;;;;25.52;14.93;;;;;;;6.51;49.58;101451.03;4933193;29;20031;-79
2022/03/20 01:14:59;;;;;;;24.67;16.25;;;;;;;6.53;49.61;101451.69;4931749;29;20059;-81
2022/03/20 01:17:24;;;;;;;24.63;14.65;;;;;;;6.56;49.10;101440.47;4930381;29;20028;-80
2022/03/20 01:19:50;;;;;;;26.42;15.15;;;;;;;6.43;49.35;101433.06;4924444;29;20032;-80
2022/03/20 01:22:16;;;;;;;26.38;15.13;;;;;;;6.33;49.72;101430.69;4924931;29;20130;-80
2022/03/20 01:24:45;;;;;;;29.58;15.90;;;;;;;6.34;50.02;101428.81;4924398;29;20063;-80
2022/03/20 01:30:13;;;;;;;27.85;14.32;;;;;;;6.25;49.63;101428.97;4922197;29;20126;-80
2022/03/20 01:32:39;;;;;;;29.30;15.88;;;;;;;6.36;49.59;101424.91;4935662;29;20727;-80
2022/03/20 01:35:09;;;;;;;25.35;14.73;;;;;;;6.28;48.61;101416.91;4943595;28;20027;-81
2022/03/20 01:37:35;;;;;;;32.15;17.25;;;;;;;6.32;48.78;101412.78;4943634;29;20031;-79
2022/03/20 01:40:00;;;;;;;23.25;14.40;;;;;;;6.37;48.53;101418.44;4942519;29;20063;-79
2022/03/20 01:42:25;;;;;;;26.15;14.73;;;;;;;6.22;48.05;101410.41;4905547;29;20031;-80
2022/03/20 01:44:52;;;;;;;26.05;15.60;;;;;;;6.28;48.53;101406.91;4906024;29;20487;-80
2022/03/20 01:47:17;;;;;;;28.88;15.75;;;;;;;6.31;48.01;101402.97;4904364;29;20074;-80
2022/03/20 01:49:45;;;;;;;29.60;15.82;;;;;;;6.40;47.99;101399.09;4888621;29;20047;-81
2022/03/20 01:52:11;;;;;;;33.22;17.63;;;;;;;6.28;48.42;101401.50;4922188;29;20040;-79
2022/03/20 01:54:44;;;;;;;27.67;15.07;;;;;;;6.31;48.51;101394.81;4925497;29;20036;-80
2022/03/20 01:57:25;;;;;;;29.33;15.85;;;;;;;6.30;48.29;101385.84;4923992;29;20063;-80
2022/03/20 01:59:51;;;;;;;25.27;14.48;;;;;;;6.47;47.70;101382.03;4924670;29;20032;-81
2022/03/20 02:02:18;;;;;;;27.20;14.98;;;;;;;6.25;48.14;101365.81;4923417;29;20046;-79
2022/03/20 02:04:43;;;;;;;26.60;15.23;;;;;;;6.14;48.30;101362.59;4928713;29;20028;-80
2022/03/20 02:07:13;;;;;;;30.23;15.38;;;;;;;6.32;47.61;101358.59;4924620;29;20550;-80
2022/03/20 02:09:44;;;;;;;25.27;14.88;;;;;;;6.37;47.48;101350.69;4924480;29;20023;-80
2022/03/20 02:12:10;;;;;;;25.38;15.07;;;;;;;6.28;47.59;101357.31;4923668;29;20613;-79
2022/03/20 02:14:36;;;;;;;28.33;17.10;;;;;;;6.01;48.72;101354.34;4924119;29;20035;-79
2022/03/20 02:17:02;;;;;;;30.38;16.52;;;;;;;6.36;48.07;101348.19;4906193;29;20529;-80
2022/03/20 02:19:28;;;;;;;29.02;15.35;;;;;;;6.37;47.75;101342.56;4924342;29;20637;-79
2022/03/20 02:21:54;;;;;;;23.33;15.32;;;;;;;6.36;48.03;101331.94;4924076;29;20048;-81
2022/03/20 02:24:54;;;;;;;31.00;17.10;;;;;;;6.17;48.02;101324.31;4923879;29;20094;-80
2022/03/20 02:27:24;;;;;;;31.60;16.70;;;;;;;6.22;48.08;101333.72;4873588;29;20270;-80
2022/03/20 02:29:56;;;;;;;24.13;15.00;;;;;;;6.42;47.08;101336.56;4923591;29;20032;-81
2022/03/20 02:32:32;;;;;;;31.40;16.48;;;;;;;6.29;47.06;101321.03;4914548;29;20063;-82
2022/03/20 02:35:05;;;;;;;29.77;16.42;;;;;;;6.23;47.37;101319.13;4924284;29;20581;-80
2022/03/20 02:37:31;;;;;;;32.70;16.53;;;;;;;6.23;46.92;101311.00;4924217;29;20485;-80
2022/03/20 02:40:02;;;;;;;28.30;16.55;;;;;;;6.35;47.00;101306.72;4923211;29;20028;-81
2022/03/20 02:42:27;;;;;;;27.02;16.40;;;;;;;6.27;47.33;101302.28;4923287;29;20060;-81
2022/03/20 02:45:03;;;;;;;32.30;18.02;;;;;;;6.32;46.84;101309.84;4923013;29;20432;-79
2022/03/20 02:47:43;;;;;;;35.30;17.52;;;;;;;6.22;47.29;101287.69;4924033;29;20046;-80
2022/03/20 02:50:32;;;;;;;23.73;13.57;;;;;;;6.34;46.87;101291.50;4909750;29;20039;-79
2022/03/20 02:53:11;;;;;;;30.30;17.92;;;;;;;6.19;46.70;101284.31;4927208;29;20542;-81
2022/03/20 02:55:39;;;;;;;28.13;14.75;;;;;;;6.25;46.74;101287.25;4927735;29;20131;-80
2022/03/20 02:58:07;;;;;;;26.58;14.23;;;;;;;6.23;46.84;101283.91;4927827;29;20035;-77
2022/03/20 03:00:34;;;;;;;31.63;18.30;;;;;;;6.27;46.50;101285.19;4927508;29;20050;-81
2022/03/20 03:03:01;;;;;;;25.00;14.75;;;;;;;6.22;45.96;101279.53;4925780;29;20039;-80
2022/03/20 03:05:28;;;;;;;24.08;14.55;;;;;;;6.25;45.77;101273.72;4912550;29;20039;-80
2022/03/20 03:10:57;;;;;;;22.75;15.35;;;;;;;6.00;46.09;101263.34;4925058;29;20039;-79
2022/03/20 03:13:25;;;;;;;30.80;16.53;;;;;;;6.10;45.48;101277.41;4924999;29;20036;-81
2022/03/20 03:15:52;;;;;;;27.85;15.80;;;;;;;6.27;45.11;101268.94;4924514;29;20740;-81
2022/03/20 03:18:18;;;;;;;34.95;17.70;;;;;;;6.10;45.01;101268.44;4925302;29;20031;-80
2022/03/20 03:20:43;;;;;;;30.85;15.82;;;;;;;6.15;44.97;101272.22;4925054;29;20475;-80
2022/03/20 03:23:08;;;;;;;28.30;15.57;;;;;;;5.84;45.03;101257.16;4924742;29;20055;-80
2022/03/20 03:25:40;;;;;;;27.63;15.10;;;;;;;6.27;44.55;101256.25;4925620;29;20768;-80
2022/03/20 03:28:07;;;;;;;29.48;15.38;;;;;;;6.23;44.63;101251.41;4924243;29;20035;-79
2022/03/20 03:30:35;;;;;;;21.52;15.20;;;;;;;6.27;44.24;101247.28;4918319;29;20048;-81
2022/03/20 03:33:00;;;;;;;24.73;16.30;;;;;;;6.30;44.57;101241.47;4919747;29;20055;-81
2022/03/20 03:35:46;;;;;;;29.88;15.80;;;;;;;6.23;44.70;101235.16;4924867;29;20249;-80
2022/03/20 03:38:17;;;;;;;34.10;16.75;;;;;;;6.25;44.40;101243.94;4925067;29;20047;-81
2022/03/20 03:40:45;;;;;;;27.20;14.88;;;;;;;6.29;43.72;101228.94;4906687;29;20027;-79
2022/03/20 03:43:11;;;;;;;25.73;14.50;;;;;;;6.28;44.16;101224.59;4924888;29;20487;-80
2022/03/20 03:45:39;;;;;;;28.08;15.52;;;;;;;6.37;44.26;101215.25;4924773;29;20067;-81
2022/03/20 03:48:04;;;;;;;36.17;15.73;;;;;;;6.22;45.08;101207.25;4924576;29;20047;-81
2022/03/20 03:50:30;;;;;;;36.25;15.23;;;;;;;5.92;44.96;101213.69;4924162;29;20039;-81
2022/03/20 03:52:55;;;;;;;32.67;15.70;;;;;;;6.19;45.23;101213.91;4924498;29;20418;-80
2022/03/20 03:55:20;;;;;;;35.63;15.10;;;;;;;6.29;44.95;101223.53;4924320;29;20076;-80
2022/03/20 03:57:47;;;;;;;26.90;16.42;;;;;;;6.07;45.10;101210.91;4924143;29;20270;-81
2022/03/20 04:00:17;;;;;;;28.38;16.02;;;;;;;6.24;45.06;101212.47;4917623;29;20043;-81
2022/03/20 04:02:42;;;;;;;34.00;17.38;;;;;;;6.40;44.31;101209.44;4923844;29;20120;-80
2022/03/20 04:05:08;;;;;;;29.10;15.80;;;;;;;6.04;44.49;101210.47;4928416;29;20510;-81
2022/03/20 04:07:35;;;;;;;26.40;14.20;;;;;;;6.05;44.99;101212.13;4924328;29;20020;-81
2022/03/20 04:10:02;;;;;;;28.02;15.07;;;;;;;6.17;44.45;101209.72;4923902;29;20092;-81
2022/03/20 04:12:28;;;;;;;28.40;15.35;;;;;;;5.99;45.01;101202.06;4924075;29;20223;-79
2022/03/20 04:14:54;;;;;;;23.90;15.60;;;;;;;6.24;44.28;101198.94;4923809;29;20916;-80
2022/03/20 04:17:19;;;;;;;25.83;14.25;;;;;;;6.24;44.06;101188.09;4924326;29;20035;-81
2022/03/20 04:19:44;;;;;;;28.77;16.30;;;;;;;6.24;44.18;101188.09;4924340;29;20031;-81
2022/03/20 04:22:09;;;;;;;22.00;12.77;;;;;;;6.05;43.92;101185.03;4923706;29;20059;-80
2022/03/20 04:24:38;;;;;;;24.83;14.77;;;;;;;6.05;44.26;101190.44;4907309;29;20304;-80
2022/03/20 04:27:05;;;;;;;27.07;14.77;;;;;;;5.93;44.68;101182.91;4923677;29;20036;-81
2022/03/20 04:29:31;;;;;;;25.40;14.38;;;;;;;6.02;44.56;101175.44;4924192;29;20705;-81
2022/03/20 04:31:57;;;;;;;28.92;14.45;;;;;;;6.15;43.73;101168.47;4923539;29;20039;-81
2022/03/20 04:34:23;;;;;;;22.48;15.60;;;;;;;6.03;44.34;101171.72;4924062;29;20040;-80
2022/03/20 04:36:48;;;;;;;28.88;17.08;;;;;;;5.66;44.08;101166.47;4923931;29;20036;-80
2022/03/20 04:39:14;;;;;;;23.50;13.55;;;;;;;6.10;43.73;101160.97;4924231;29;20138;-81
2022/03/20 04:41:39;;;;;;;25.35;16.98;;;;;;;5.95;44.05;101159.19;4923315;29;20036;-81
2022/03/20 04:44:09;;;;;;;32.10;14.98;;;;;;;5.96;44.15;101159.97;4924069;29;20519;-80
2022/03/20 05:00:34;;;;;;;27.98;15.88;;;;;;;5.71;44.33;101164.03;4909692;29;19925;-80
2022/03/20 05:02:59;;;;;;;31.30;15.32;;;;;;;5.95;44.39;101156.47;4921082;29;20051;-80
2022/03/20 05:05:25;;;;;;;32.23;15.70;;;;;;;5.84;44.31;101155.13;4927342;29;20031;-79
2022/03/20 05:07:50;;;;;;;29.75;14.88;;;;;;;5.53;45.53;101160.97;4908174;29;20274;-79
2022/03/20 05:15:43;;;;;;;27.35;17.48;;;;;;;5.60;44.58;101161.84;4922934;29;20116;-81
2022/03/20 05:18:09;;;;;;;25.55;14.75;;;;;;;5.80;44.29;101151.16;4923093;29;20283;-80
2022/03/20 05:20:35;;;;;;;29.30;16.40;;;;;;;5.65;44.68;101151.28;4926194;29;20046;-81
2022/03/20 05:23:01;;;;;;;23.67;16.40;;;;;;;5.58;44.33;101158.50;4942281;29;20094;-81
2022/03/20 05:25:28;;;;;;;29.02;17.38;;;;;;;5.71;44.00;101157.78;4942016;29;20034;-80
2022/03/20 05:27:54;;;;;;;26.15;14.50;;;;;;;5.52;44.53;101143.06;4942249;29;20107;-80
2022/03/20 05:30:20;;;;;;;27.38;15.93;;;;;;;5.35;44.63;101143.38;4942044;29;20513;-79
2022/03/20 05:32:46;;;;;;;32.70;14.52;;;;;;;5.37;44.47;101143.97;4941053;29;20055;-80
2022/03/20 05:35:12;;;;;;;29.38;17.40;;;;;;;5.22;45.65;101147.63;4942190;29;20035;-81
2022/03/20 05:37:37;;;;;;;25.83;15.57;;;;;;;5.16;44.96;101134.88;4942012;29;20097;-80
2022/03/20 05:40:03;;;;;;;28.35;16.17;;;;;;;5.37;45.22;101131.31;4940654;29;20383;-81
2022/03/20 05:42:42;;;;;;;26.52;14.80;;;;;;;5.12;45.10;101136.31;4941392;29;20035;-80
2022/03/20 05:45:11;;;;;;;29.65;16.65;;;;;;;5.39;44.57;101122.16;4941738;29;20019;-81
2022/03/20 05:47:38;;;;;;;23.08;15.40;;;;;;;5.45;44.43;101129.50;4941696;29;20449;-81
2022/03/20 05:50:05;;;;;;;26.95;15.93;;;;;;;5.15;45.32;101144.00;4939642;29;20027;-80
2022/03/20 05:52:31;;;;;;;31.90;14.82;;;;;;;5.28;44.62;101139.75;4922436;29;20036;-80
2022/03/20 05:54:56;;;;;;;27.27;16.20;;;;;;;5.15;44.79;101122.38;4921882;29;20035;-80
2022/03/20 06:00:06;;;;;;;28.93;17.20;;;;;;;5.30;44.60;101118.75;4920856;29;20047;-80
2022/03/20 06:05:34;;;;;;;27.33;15.23;;;;;;;5.08;45.40;101106.13;4930179;29;20058;-80
2022/03/20 06:07:59;;;;;;;27.60;17.10;;;;;;;5.01;44.97;101116.88;4930535;29;20454;-80
2022/03/20 06:10:25;;;;;;;28.08;16.52;;;;;;;5.02;44.34;101110.41;4933158;29;20035;-80
2022/03/20 06:12:50;;;;;;;24.98;15.30;;;;;;;5.25;44.38;101105.81;4941738;29;20509;-80
2022/03/20 06:15:15;;;;;;;25.17;15.90;;;;;;;5.22;44.19;101108.94;4923759;29;20031;-80
2022/03/20 06:17:45;;;;;;;26.30;14.60;;;;;;;5.27;44.88;101109.16;4941305;29;20466;-81
2022/03/20 06:20:11;;;;;;;27.75;16.83;;;;;;;5.28;44.27;101101.91;4937060;29;20042;-80
2022/03/20 06:22:37;;;;;;;31.45;17.98;;;;;;;5.28;44.10;101107.31;4921794;29;20055;-80
2022/03/20 06:25:06;;;;;;;31.90;17.83;;;;;;;5.32;44.15;101095.06;4921788;29;20054;-80
2022/03/20 06:27:45;;;;;;;34.33;19.30;;;;;;;5.20;44.23;101103.72;4922412;29;20078;-80
2022/03/20 06:30:13;;;;;;;32.25;17.08;;;;;;;5.32;44.34;101105.88;4921677;29;20060;-81
2022/03/20 06:32:38;;;;;;;23.60;14.18;;;;;;;5.19;44.15;101131.78;4932991;29;20046;-81
2022/03/20 06:35:05;;;;;;;27.13;15.35;;;;;;;5.28;44.14;101147.88;4941303;29;20023;-81
2022/03/20 06:37:41;;;;;;;28.02;15.57;;;;;;;5.19;43.72;101137.19;4940927;29;20042;-80
2022/03/20 06:40:07;;;;;;;34.50;15.25;;;;;;;5.25;44.28;101139.13;4937957;29;20126;-80
2022/03/20 06:42:33;;;;;;;26.40;15.77;;;;;;;5.53;43.62;101136.63;4903066;29;20024;-81
2022/03/20 06:44:59;;;;;;;29.45;14.63;;;;;;;5.27;44.54;101140.81;4903459;29;20443;-80
2022/03/20 06:50:46;;;;;;;23.45;15.30;;;;;;;5.52;43.92;101153.88;4908576;29;20058;-81
2022/03/20 06:53:12;;;;;;;29.37;16.63;;;;;;;5.27;44.72;101146.22;4921867;29;20027;-79
2022/03/20 06:55:39;;;;;;;24.25;14.77;;;;;;;5.33;44.55;101150.84;4904884;29;20890;-80
2022/03/20 06:58:04;;;;;;;25.42;15.43;;;;;;;5.39;44.68;101152.72;4922396;29;20046;-81
2022/03/20 07:00:30;;;;;;;26.95;15.73;;;;;;;5.34;44.79;101153.34;4921420;29;20031;-80
2022/03/20 07:02:57;;;;;;;29.60;15.63;;;;;;;5.45;44.37;101149.25;4921728;29;20031;-80
2022/03/20 07:05:22;;;;;;;27.92;17.40;;;;;;;5.38;44.47;101142.97;4925860;29;20777;-81
2022/03/20 07:10:51;;;;;;;27.20;16.40;;;;;;;5.32;44.64;101138.34;4913443;29;20117;-81
2022/03/20 07:16:00;;;;;;;26.83;15.60;;;;;;;5.39;44.28;101144.63;4921395;29;20297;-81
2022/03/20 07:18:27;;;;;;;28.60;15.77;;;;;;;5.65;44.20;101136.91;4921556;29;20467;-81
2022/03/20 07:20:55;;;;;;;30.95;16.25;;;;;;;5.68;44.02;101122.97;4900278;29;20479;-81
2022/03/20 07:23:20;;;;;;;27.88;13.20;;;;;;;5.78;44.19;101126.16;4903306;29;20652;-80
2022/03/20 07:34:16;;;;;;;30.55;15.65;;;;;;;5.80;43.53;101117.84;4901655;29;20551;-80
2022/03/20 07:36:42;;;;;;;31.10;16.67;;;;;;;5.70;43.82;101108.22;4906125;29;20044;-80
2022/03/20 07:39:07;;;;;;;25.02;14.85;;;;;;;5.87;44.05;101101.63;4906206;29;20287;-81
2022/03/20 07:41:33;;;;;;;29.55;16.33;;;;;;;5.97;43.32;101102.13;4905109;29;20432;-81
2022/03/20 07:43:58;;;;;;;26.10;14.90;;;;;;;5.76;43.84;101100.31;4906039;29;20032;-80
2022/03/20 07:46:23;;;;;;;24.15;12.95;;;;;;;5.82;44.04;101094.09;4905488;29;20235;-81
2022/03/20 07:48:50;;;;;;;30.23;15.13;;;;;;;5.90;44.13;101093.13;4906366;29;20035;-81
2022/03/20 07:51:17;;;;;;;30.20;16.75;;;;;;;5.91;44.20;101076.69;4905540;29;20479;-81
2022/03/20 07:53:44;;;;;;;27.73;16.38;;;;;;;6.06;43.72;101083.88;4904541;29;20167;-81
2022/03/20 07:56:09;;;;;;;27.88;15.10;;;;;;;5.90;44.11;101079.59;4905616;29;20035;-82
2022/03/20 07:58:34;;;;;;;28.40;16.10;;;;;;;5.96;43.98;101085.03;4905185;29;20028;-81
2022/03/20 08:00:59;;;;;;;29.20;16.15;;;;;;;6.11;43.84;101078.66;4904894;29;20036;-81
2022/03/20 08:03:25;;;;;;;43.40;18.65;;;;;;;5.89;43.74;101080.63;4905718;29;20087;-80
2022/03/20 08:05:50;;;;;;;24.33;14.45;;;;;;;5.98;43.79;101084.00;4906296;29;20547;-81
2022/03/20 08:08:16;;;;;;;31.90;15.75;;;;;;;5.92;44.37;101078.34;4903952;29;20102;-80
2022/03/20 08:10:43;;;;;;;25.92;15.20;;;;;;;5.93;44.25;101068.34;4905189;29;20039;-80
2022/03/20 08:13:10;;;;;;;32.90;13.35;;;;;;;6.00;44.29;101062.97;4904809;29;20032;-80
2022/03/20 08:15:36;;;;;;;27.92;14.77;;;;;;;6.19;44.36;101059.53;4904972;29;20499;-81
2022/03/20 08:18:02;;;;;;;28.13;14.13;;;;;;;6.06;43.89;101056.78;4904773;29;20489;-81
2022/03/20 08:20:42;;;;;;;28.35;14.93;;;;;;;6.24;43.88;101049.97;4908110;29;20044;-81
2022/03/20 08:23:07;;;;;;;27.15;14.85;;;;;;;6.05;44.54;101041.53;4924728;29;20031;-81
2022/03/20 08:25:33;;;;;;;28.90;15.73;;;;;;;6.01;44.77;101042.97;4923756;29;20031;-81
2022/03/20 08:27:58;;;;;;;24.92;16.88;;;;;;;6.14;44.14;101043.03;4924117;29;20129;-81
2022/03/20 08:30:24;;;;;;;24.95;15.68;;;;;;;6.06;44.20;101043.25;4923347;29;20038;-80
2022/03/20 08:32:54;;;;;;;28.95;16.42;;;;;;;6.32;44.02;101047.06;4934703;28;20546;-80
2022/03/20 08:35:20;;;;;;;29.98;18.30;;;;;;;6.25;44.11;101048.91;4941468;29;20054;-81
2022/03/20 08:40:49;;;;;;;30.63;17.15;;;;;;;6.53;44.65;101045.22;4928897;29;20054;-81
2022/03/20 08:43:15;;;;;;;23.33;15.32;;;;;;;6.76;43.93;101031.28;4942076;29;20039;-79
2022/03/20 08:45:42;;;;;;;27.05;16.25;;;;;;;6.87;43.84;101024.41;4934209;28;20034;-81
2022/03/20 08:48:09;;;;;;;30.50;15.82;;;;;;;6.78;43.67;101017.50;4940124;29;20033;-79
2022/03/20 08:50:34;;;;;;;29.05;16.75;;;;;;;6.74;43.76;101003.56;4929209;29;20035;-80
2022/03/20 08:53:00;;;;;;;31.65;17.30;;;;;;;6.94;43.72;101004.56;4931381;29;20260;-78
2022/03/20 08:55:25;;;;;;;27.08;16.58;;;;;;;7.12;43.37;100993.91;4935214;29;20031;-78
2022/03/20 08:57:54;;;;;;;36.25;18.23;;;;;;;7.11;43.83;100980.56;4929267;29;20031;-79
2022/03/20 09:00:22;;;;;;;26.92;14.27;;;;;;;7.06;43.52;100970.34;4925272;29;20031;-82
2022/03/20 09:02:49;;;;;;;25.58;16.05;;;;;;;7.30;44.09;100951.72;4918763;29;20047;-80
2022/03/20 09:05:14;;;;;;;28.63;16.95;;;;;;;7.40;44.08;100939.59;4921821;29;20042;-80
2022/03/20 09:07:41;;;;;;;30.45;15.15;;;;;;;7.66;43.37;100946.78;4922911;29;20047;-81
2022/03/20 09:10:08;;;;;;;31.50;17.33;;;;;;;7.78;43.49;100951.53;4918872;29;20254;-80
2022/03/20 09:12:34;;;;;;;33.88;17.75;;;;;;;7.66;43.36;100973.94;4925213;29;20501;-81
2022/03/20 09:15:03;;;;;;;32.47;16.75;;;;;;;7.92;43.55;100969.41;4930011;29;20491;-80
2022/03/20 09:20:14;;;;;;;25.33;15.75;;;;;;;7.91;43.62;100996.81;4922488;29;20105;-81
2022/03/20 09:22:39;;;;;;;29.90;18.02;;;;;;;8.13;43.08;100997.31;4925103;29;20070;-81
2022/03/20 09:25:05;;;;;;;40.60;20.98;;;;;;;7.79;43.69;101000.19;4914930;29;20032;-78
2022/03/20 09:27:30;;;;;;;34.53;19.73;;;;;;;7.69;43.74;101011.50;4930595;29;20042;-82
2022/03/20 09:29:56;;;;;;;30.63;16.88;;;;;;;7.91;43.62;101010.38;4922026;29;20040;-82
2022/03/20 09:32:21;;;;;;;29.63;16.42;;;;;;;8.08;43.61;100997.13;4926163;29;20042;-82
2022/03/20 09:34:47;;;;;;;29.23;16.83;;;;;;;8.10;44.04;100983.31;4924541;29;20158;-82
2022/03/20 09:37:12;;;;;;;32.03;16.70;;;;;;;8.37;43.32;100992.13;4922383;29;20040;-81
2022/03/20 09:39:37;;;;;;;30.00;16.02;;;;;;;8.50;43.43;100993.91;4923065;29;20047;-81
2022/03/20 09:42:06;;;;;;;35.72;18.02;;;;;;;8.40;42.60;101004.47;4921965;29;20226;-82
2022/03/20 09:44:44;;;;;;;31.42;17.23;;;;;;;8.50;43.64;101009.41;4922159;29;20427;-81
2022/03/20 09:47:11;;;;;;;31.45;18.23;;;;;;;8.37;44.21;100992.13;4918300;29;20135;-80
2022/03/20 09:49:36;;;;;;;33.22;19.00;;;;;;;8.60;43.11;100995.34;4911011;29;20083;-81
2022/03/20 09:52:03;;;;;;;33.80;17.75;;;;;;;8.84;42.88;100992.84;4928808;29;20154;-81
2022/03/20 09:54:28;;;;;;;31.17;17.67;;;;;;;8.72;43.68;100996.31;4931038;29;20027;-82
2022/03/20 09:56:54;;;;;;;37.33;20.52;;;;;;;8.67;43.99;100985.25;4930709;28;20227;-82
2022/03/20 09:59:19;;;;;;;35.10;21.10;;;;;;;8.70;43.90;100995.69;4929686;29;20466;-82
2022/03/20 10:01:44;;;;;;;31.67;17.15;;;;;;;8.93;43.18;100987.97;4923259;29;20601;-81
2022/03/20 10:04:15;;;;;;;30.40;17.57;;;;;;;9.06;43.84;100987.00;4931167;29;20028;-82
2022/03/20 10:06:42;;;;;;;37.78;19.95;;;;;;;8.97;43.79;100976.41;4910416;29;20294;-82
2022/03/20 10:09:15;;;;;;;37.75;19.92;;;;;;;9.18;43.54;100974.31;4921690;29;20059;-82
2022/03/20 10:11:54;;;;;;;33.03;17.10;;;;;;;9.19;43.79;100970.53;4919133;29;20047;-81
2022/03/20 10:14:31;;;;;;;32.70;18.58;;;;;;;9.34;43.29;100953.00;4921233;29;20426;-81
2022/03/20 10:16:59;;;;;;;28.83;15.93;;;;;;;9.40;43.33;100953.97;4920853;29;20039;-82
2022/03/20 10:19:27;;;;;;;33.53;18.08;;;;;;;9.25;43.73;100957.09;4921438;29;20454;-81
2022/03/20 10:21:59;;;;;;;34.40;20.40;;;;;;;9.26;43.72;100942.41;4920393;29;20362;-81
2022/03/20 10:24:26;;;;;;;34.00;20.55;;;;;;;9.38;43.92;100937.03;4919950;29;20023;-82
2022/03/20 10:27:04;;;;;;;33.45;18.75;;;;;;;9.55;43.66;100946.25;4901301;29;20050;-80
2022/03/20 10:29:33;;;;;;;33.33;17.70;;;;;;;9.49;43.74;100940.88;4921064;29;20034;-82
2022/03/20 10:32:08;;;;;;;32.88;20.10;;;;;;;9.78;44.10;100950.13;4923291;29;20044;-81
2022/03/20 10:34:47;;;;;;;54.75;20.50;;;;;;;9.34;43.86;100936.66;4918702;29;20112;-81
2022/03/20 10:37:13;;;;;;;34.75;19.55;;;;;;;9.50;43.99;100948.00;4918726;29;20043;-82
2022/03/20 10:39:41;;;;;;;33.90;20.77;;;;;;;9.69;43.75;100944.19;4921123;29;20031;-82
2022/03/20 10:42:10;;;;;;;34.08;17.60;;;;;;;9.93;43.71;100954.34;4921978;29;20143;-81
2022/03/20 10:44:38;;;;;;;36.28;21.40;;;;;;;10.05;43.33;100940.75;4920332;29;20528;-82
2022/03/20 10:47:16;;;;;;;32.60;20.63;;;;;;;9.92;44.09;100934.47;4920112;29;20102;-81
2022/03/20 10:50:02;;;;;;;39.95;22.52;;;;;;;9.66;43.64;100935.66;4922464;29;20167;-83
2022/03/20 10:52:29;;;;;;;36.55;22.75;;;;;;;9.71;43.83;100927.63;4920506;29;20047;-82
2022/03/20 10:54:55;;;;;;;35.67;19.58;;;;;;;9.88;43.04;100921.53;4921025;29;20589;-82
2022/03/20 10:57:21;;;;;;;34.90;20.00;;;;;;;10.04;43.18;100928.22;4921786;29;20292;-82
2022/03/20 10:59:58;;;;;;;36.63;19.58;;;;;;;10.26;42.77;100936.69;4904955;29;20067;-82
2022/03/20 11:02:25;;;;;;;33.25;20.33;;;;;;;10.06;43.04;100928.81;4911220;29;20044;-80
2022/03/20 11:04:51;;;;;;;34.53;20.60;;;;;;;10.30;43.32;100930.75;4920785;29;20546;-82
2022/03/20 11:07:18;;;;;;;33.35;18.60;;;;;;;10.28;43.08;100926.38;4922688;29;20047;-82
2022/03/20 11:09:47;;;;;;;42.80;21.25;;;;;;;10.51;42.35;100924.75;4924968;29;20050;-81
2022/03/20 11:15:06;;;;;;;39.72;22.30;;;;;;;10.44;42.76;100934.09;4922103;29;20455;-82
2022/03/20 11:17:40;;;;;;;35.03;17.58;;;;;;;10.54;42.99;100923.47;4923918;29;20582;-82
2022/03/20 11:20:07;;;;;;;119.50;27.50;;;;;;;10.33;42.92;100925.66;4925777;29;20043;-81
2022/03/20 11:22:37;;;;;;;37.67;20.30;;;;;;;10.31;42.71;100938.72;4924905;29;20491;-82
2022/03/20 11:25:05;;;;;;;33.40;19.73;;;;;;;10.59;42.60;100944.56;4925432;29;20502;-81
2022/03/20 11:27:32;;;;;;;34.97;19.73;;;;;;;10.89;42.57;100940.91;4922708;29;20393;-82
2022/03/20 11:30:06;;;;;;;38.13;21.00;;;;;;;10.43;42.94;100936.00;4925240;29;20638;-80
2022/03/20 11:32:32;;;;;;;37.95;20.33;;;;;;;10.33;43.01;100935.75;4924502;29;20499;-82
2022/03/20 11:34:59;;;;;;;34.00;18.77;;;;;;;10.19;43.83;100938.66;4925784;29;20576;-81
2022/03/20 11:37:41;;;;;;;36.90;22.20;;;;;;;10.61;43.77;100937.84;4925035;29;20150;-81
2022/03/20 11:40:10;;;;;;;39.08;21.50;;;;;;;10.60;43.54;100932.59;4924861;29;20036;-81
2022/03/20 11:42:36;;;;;;;36.40;22.77;;;;;;;10.39;44.00;100926.63;4924937;29;20094;-80
2022/03/20 11:45:04;;;;;;;35.38;19.90;;;;;;;10.52;44.36;100925.59;4924901;29;20486;-81
2022/03/20 11:47:35;;;;;;;36.55;21.45;;;;;;;10.94;43.44;100921.91;4923259;29;20411;-81
2022/03/20 11:50:13;;;;;;;43.53;23.73;;;;;;;10.82;43.16;100926.56;4924877;29;20042;-83
2022/03/20 11:52:45;;;;;;;35.85;20.70;;;;;;;10.84;43.69;100941.59;4924870;29;20039;-81
2022/03/20 11:55:40;;;;;;;33.75;21.05;;;;;;;10.81;43.89;100930.34;4925085;29;20099;-81
2022/03/20 11:58:34;;;;;;;40.58;21.50;;;;;;;11.11;43.26;100923.06;4907301;29;20125;-82
2022/03/20 12:01:04;;;;;;;35.05;19.77;;;;;;;11.19;43.39;100917.25;4923466;29;20130;-83
2022/03/20 12:03:53;;;;;;;37.05;19.42;;;;;;;11.00;44.26;100920.16;4924488;29;20044;-81
2022/03/20 12:06:42;;;;;;;35.42;21.80;;;;;;;11.28;43.30;100907.63;4904974;29;20487;-82
2022/03/20 12:09:19;;;;;;;35.53;19.13;;;;;;;11.41;43.87;100913.88;4905522;29;20373;-82
2022/03/20 12:12:08;;;;;;;43.92;22.40;;;;;;;11.40;44.11;100917.69;4919614;29;20562;-81
2022/03/20 12:18:01;;;;;;;37.88;18.40;;;;;;;10.86;44.98;100914.91;4897548;29;20055;-82
2022/03/20 12:20:52;;;;;;;54.17;26.42;;;;;;;10.78;46.65;100895.38;4911569;29;20042;-82
2022/03/20 12:23:31;;;;;;;54.28;24.58;;;;;;;10.92;45.96;100901.41;4937089;29;20139;-82
2022/03/20 12:25:57;;;;;;;32.40;21.92;;;;;;;11.23;45.05;100907.50;4923835;29;20696;-82